Time;durP1;ratioP1;P1;durP2;ratioP2;P2;SDS_P1;SDS_P2;PMS_P1;PMS_P2;Temp;Humidity;BMP_temperature;BMP_pressure;BME280_temperature;BME280_humidity;BME280_pressure;Samples;Min_cycle;Max_cycle;Signal;HPM_P1;HPM_P2
2022/03/28 00:02:08;;;;;;;107.60;47.00;;;2.30;74.70;;;;;;10450838;28;20074;-83
2022/03/28 00:07:08;;;;;;;126.57;51.70;;;2.20;75.30;;;;;;10434976;28;20063;-86
2022/03/28 00:12:10;;;;;;;122.93;52.33;;;2.10;75.70;;;;;;10431386;28;20040;-82
2022/03/28 00:17:11;;;;;;;105.20;45.57;;;2.10;75.80;;;;;;10438907;28;20033;-86
2022/03/28 00:22:12;;;;;;;108.70;46.13;;;2.10;75.50;;;;;;10448622;28;20025;-84
2022/03/28 00:27:12;;;;;;;156.40;56.30;;;2.10;75.70;;;;;;10438198;28;20054;-83
2022/03/28 00:32:13;;;;;;;116.60;48.93;;;2.00;76.60;;;;;;10431208;28;20051;-83
2022/03/28 00:37:13;;;;;;;126.10;49.23;;;2.00;77.10;;;;;;10453206;28;20040;-83
2022/03/28 00:42:14;;;;;;;117.90;48.07;;;1.90;78.00;;;;;;10455326;28;20119;-83
2022/03/28 00:47:15;;;;;;;119.63;49.60;;;1.80;78.10;;;;;;10421777;28;20064;-84
2022/03/28 00:52:16;;;;;;;114.53;47.40;;;1.60;78.20;;;;;;10413695;28;20037;-83
2022/03/28 00:57:17;;;;;;;154.90;65.60;;;1.50;78.60;;;;;;10427367;28;20044;-83
2022/03/28 01:02:18;;;;;;;157.70;67.63;;;1.50;79.00;;;;;;10453274;28;20032;-83
2022/03/28 01:07:19;;;;;;;163.27;67.30;;;1.60;79.60;;;;;;10445087;28;20063;-86
2022/03/28 01:12:22;;;;;;;173.90;68.00;;;1.50;80.00;;;;;;10422226;28;20421;-84
2022/03/28 01:22:42;;;;;;;166.87;68.27;;;1.20;80.30;;;;;;10412743;28;20041;-84
2022/03/28 01:27:43;;;;;;;148.33;57.37;;;1.10;80.90;;;;;;10412974;28;20053;-84
2022/03/28 01:32:45;;;;;;;120.40;51.07;;;1.10;81.20;;;;;;10411971;28;20099;-84
2022/03/28 01:37:46;;;;;;;118.17;50.83;;;1.00;81.00;;;;;;10450127;28;20060;-83
2022/03/28 01:42:49;;;;;;;104.80;45.07;;;1.10;81.90;;;;;;10437454;28;20597;-84
2022/03/28 01:47:49;;;;;;;108.67;45.07;;;1.10;81.80;;;;;;10410590;28;20033;-83
2022/03/28 01:52:50;;;;;;;116.63;48.33;;;1.00;82.30;;;;;;10411394;28;20480;-87
2022/03/28 01:57:52;;;;;;;113.07;47.27;;;1.00;83.40;;;;;;10431293;28;20520;-85
2022/03/28 02:02:52;;;;;;;114.97;46.90;;;1.00;83.60;;;;;;10451003;28;20032;-84
2022/03/28 02:07:53;;;;;;;121.13;49.27;;;1.00;83.90;;;;;;10429082;28;20025;-84
2022/03/28 02:12:54;;;;;;;113.73;46.60;;;1.00;83.80;;;;;;10439719;28;20037;-84
2022/03/28 02:17:54;;;;;;;105.37;47.23;;;1.00;84.40;;;;;;10427854;28;20034;-83
2022/03/28 02:22:55;;;;;;;111.47;47.57;;;1.00;84.50;;;;;;10409778;28;20033;-86
2022/03/28 02:27:56;;;;;;;113.77;47.70;;;0.90;84.70;;;;;;10408143;28;20057;-84
2022/03/28 02:32:57;;;;;;;132.63;53.00;;;0.90;84.80;;;;;;10435150;28;20037;-84
2022/03/28 02:38:01;;;;;;;122.60;51.87;;;0.90;85.50;;;;;;10448086;28;20024;-83
2022/03/28 02:43:03;;;;;;;127.67;57.50;;;0.80;85.70;;;;;;10450523;28;20388;-87
2022/03/28 02:48:04;;;;;;;137.00;59.77;;;0.90;85.90;;;;;;10439775;28;20029;-83
2022/03/28 02:53:05;;;;;;;113.73;51.90;;;0.90;86.50;;;;;;10449172;28;20041;-85
2022/03/28 02:58:05;;;;;;;115.00;51.17;;;0.80;86.80;;;;;;10447624;28;20040;-82
2022/03/28 03:03:06;;;;;;;112.97;50.10;;;0.80;87.10;;;;;;10432141;28;20049;-81
2022/03/28 03:08:07;;;;;;;110.63;49.43;;;0.80;87.90;;;;;;10446439;28;20021;-83
2022/03/28 03:13:08;;;;;;;120.70;50.13;;;0.80;87.80;;;;;;10439798;28;20436;-82
2022/03/28 03:18:08;;;;;;;108.77;48.47;;;0.80;88.20;;;;;;10411590;28;20037;-86
2022/03/28 03:23:09;;;;;;;121.10;52.00;;;0.80;88.40;;;;;;10421995;28;20447;-81
2022/03/28 03:28:10;;;;;;;116.30;52.03;;;0.90;88.90;;;;;;10447109;28;20064;-83
2022/03/28 03:33:10;;;;;;;119.60;52.37;;;0.80;88.70;;;;;;10418971;28;20103;-82
2022/03/28 03:38:11;;;;;;;122.07;53.50;;;0.80;89.10;;;;;;10406455;28;20486;-83
2022/03/28 03:43:12;;;;;;;109.60;47.83;;;0.80;90.10;;;;;;10441976;28;20082;-83
2022/03/28 03:48:13;;;;;;;110.07;48.53;;;0.70;90.40;;;;;;10441634;28;20029;-83
2022/03/28 03:53:14;;;;;;;119.33;50.37;;;0.70;90.20;;;;;;10431124;28;20477;-83
2022/03/28 03:58:14;;;;;;;116.53;50.23;;;0.70;90.50;;;;;;10428812;28;20030;-84
2022/03/28 04:03:15;;;;;;;120.27;51.33;;;0.60;90.70;;;;;;10413986;28;20030;-83
2022/03/28 04:08:16;;;;;;;113.17;50.27;;;0.50;91.20;;;;;;10435832;28;20523;-84
2022/03/28 04:13:17;;;;;;;112.67;49.67;;;0.50;91.00;;;;;;10421688;28;20448;-81
2022/03/28 04:18:18;;;;;;;132.03;56.20;;;0.50;91.90;;;;;;10414016;28;20018;-85
2022/03/28 04:23:19;;;;;;;118.43;51.53;;;0.40;92.50;;;;;;10422164;28;20033;-87
2022/03/28 04:28:20;;;;;;;115.43;53.63;;;0.30;93.40;;;;;;10491473;23;20057;-82
2022/03/28 04:33:20;;;;;;;118.23;51.83;;;0.40;93.50;;;;;;10447509;28;20047;-81
2022/03/28 04:38:24;;;;;;;124.23;54.33;;;0.40;93.80;;;;;;10454550;28;20464;-83
2022/03/28 04:43:25;;;;;;;122.47;54.97;;;0.30;94.50;;;;;;10420270;28;20120;-83
2022/03/28 04:48:26;;;;;;;122.50;55.03;;;0.30;94.00;;;;;;10396181;28;20463;-86
2022/03/28 04:53:26;;;;;;;129.80;53.50;;;0.40;94.30;;;;;;10415888;28;20052;-85
2022/03/28 04:58:27;;;;;;;114.50;51.83;;;0.40;94.50;;;;;;10444722;28;20029;-85
2022/03/28 05:03:27;;;;;;;118.33;52.87;;;0.40;93.90;;;;;;10435695;28;20468;-84
2022/03/28 05:08:28;;;;;;;117.87;52.03;;;0.40;94.70;;;;;;10436584;28;20365;-86
2022/03/28 05:13:29;;;;;;;106.80;46.73;;;0.40;95.50;;;;;;10434803;28;20033;-83
2022/03/28 05:18:29;;;;;;;109.30;50.80;;;0.50;95.90;;;;;;10446807;28;20082;-83
2022/03/28 05:23:30;;;;;;;116.93;49.73;;;0.60;96.10;;;;;;10430105;28;20021;-86
2022/03/28 05:28:31;;;;;;;115.87;49.23;;;0.80;96.20;;;;;;10457302;28;20041;-87
2022/03/28 05:33:32;;;;;;;114.67;53.33;;;0.90;95.80;;;;;;10432992;28;20035;-84
2022/03/28 05:38:33;;;;;;;138.60;54.90;;;1.10;95.50;;;;;;10452996;28;20074;-86
2022/03/28 05:43:35;;;;;;;164.87;73.63;;;1.30;95.10;;;;;;10441889;28;20100;-84
2022/03/28 05:48:35;;;;;;;169.20;73.33;;;1.50;94.30;;;;;;10452532;28;20049;-84
2022/03/28 05:53:36;;;;;;;168.33;67.33;;;1.70;94.50;;;;;;10451906;28;20119;-84
2022/03/28 05:58:37;;;;;;;145.67;64.47;;;1.90;94.80;;;;;;10439739;28;20089;-84
2022/03/28 06:03:37;;;;;;;243.73;88.80;;;2.10;95.00;;;;;;10439104;28;20028;-84
2022/03/28 06:08:38;;;;;;;146.77;57.17;;;2.40;95.00;;;;;;10451840;28;20090;-86
2022/03/28 06:13:38;;;;;;;121.73;49.80;;;2.60;94.60;;;;;;10407990;28;20048;-84
2022/03/28 06:18:39;;;;;;;112.50;44.90;;;2.90;94.60;;;;;;10392090;28;20034;-84
2022/03/28 06:23:40;;;;;;;106.70;45.57;;;3.20;94.50;;;;;;10435612;28;20043;-84
2022/03/28 06:28:41;;;;;;;98.13;42.93;;;3.50;94.00;;;;;;10428231;28;20103;-83
2022/03/28 06:33:42;;;;;;;118.97;47.57;;;3.90;93.50;;;;;;10447915;28;20041;-85
2022/03/28 06:38:43;;;;;;;100.10;48.50;;;4.20;92.60;;;;;;10448791;28;20028;-85
2022/03/28 06:43:43;;;;;;;88.03;40.47;;;4.60;91.90;;;;;;10430003;28;20032;-83
2022/03/28 06:48:44;;;;;;;96.17;42.53;;;4.90;91.70;;;;;;10429984;28;20025;-83
2022/03/28 06:53:48;;;;;;;69.87;31.30;;;5.20;91.20;;;;;;10431436;28;20025;-84
2022/03/28 06:58:49;;;;;;;54.20;25.80;;;5.60;90.70;;;;;;10450148;28;20094;-86
2022/03/28 07:03:49;;;;;;;47.33;24.53;;;6.10;88.90;;;;;;10432206;28;20501;-83
2022/03/28 07:08:51;;;;;;;48.27;23.07;;;6.60;86.40;;;;;;10449409;28;20021;-85
2022/03/28 07:13:52;;;;;;;52.93;25.27;;;7.10;83.90;;;;;;10449603;28;20056;-88
2022/03/28 07:18:52;;;;;;;51.50;24.87;;;7.50;82.90;;;;;;10449266;28;20477;-83
2022/03/28 07:23:54;;;;;;;53.13;25.33;;;7.90;82.20;;;;;;10431373;28;20029;-86
2022/03/28 07:28:58;;;;;;;54.37;25.87;;;8.30;80.80;;;;;;10449068;28;20029;-84
2022/03/28 07:34:34;;;;;;;50.90;24.97;;;8.70;79.10;;;;;;10449365;28;20024;-83
2022/03/28 07:39:26;;;;;;;48.73;24.07;;;9.10;77.90;;;;;;10445786;28;20067;-83
2022/03/28 07:44:26;;;;;;;50.77;24.37;;;9.60;77.40;;;;;;10449107;28;20037;-86
2022/03/28 07:49:28;;;;;;;38.85;19.30;;;10.00;76.00;;;;;;10455771;28;20033;-87
2022/03/28 07:54:29;;;;;;;31.35;17.02;;;10.40;75.30;;;;;;10456758;28;20477;-84
2022/03/28 07:59:29;;;;;;;36.50;15.82;;;10.90;74.40;;;;;;10457353;28;20029;-86
2022/03/28 08:04:31;;;;;;;28.08;15.30;;;11.40;73.00;;;;;;10456845;28;20510;-87
2022/03/28 08:09:32;;;;;;;28.40;15.20;;;11.80;71.70;;;;;;10438105;28;20040;-83
2022/03/28 08:14:33;;;;;;;31.05;14.80;;;12.20;70.10;;;;;;10456090;28;20051;-84
2022/03/28 08:19:34;;;;;;;34.92;15.75;;;12.50;69.30;;;;;;10455926;28;20043;-83
2022/03/28 08:24:35;;;;;;;25.20;13.60;;;12.80;68.10;;;;;;10456052;28;20550;-87
2022/03/28 08:29:35;;;;;;;27.23;14.32;;;13.10;67.50;;;;;;10455746;28;20033;-84
2022/03/28 08:34:36;;;;;;;28.52;13.77;;;13.40;68.00;;;;;;10455775;28;20524;-89
2022/03/28 08:39:37;;;;;;;27.98;13.52;;;13.70;65.50;;;;;;10455301;28;20029;-83
2022/03/28 08:44:39;;;;;;;24.95;13.32;;;14.00;65.00;;;;;;10454868;28;20029;-86
2022/03/28 08:49:39;;;;;;;24.00;12.63;;;14.30;64.00;;;;;;10437317;28;20391;-84
2022/03/28 08:54:40;;;;;;;26.30;12.82;;;14.70;63.80;;;;;;10454510;28;20043;-84
2022/03/28 08:59:41;;;;;;;27.17;12.95;;;14.90;62.90;;;;;;10454542;28;20053;-85
2022/03/28 09:04:47;;;;;;;22.00;12.07;;;15.00;62.70;;;;;;10454732;28;20033;-87
2022/03/28 09:09:59;;;;;;;22.50;11.20;;;15.30;62.70;;;;;;10453707;28;20041;-87
2022/03/28 09:15:04;;;;;;;21.35;12.07;;;15.50;61.10;;;;;;10454018;28;20054;-83
2022/03/28 09:20:05;;;;;;;23.75;11.10;;;15.70;60.90;;;;;;10453918;28;20029;-85
2022/03/28 09:25:08;;;;;;;21.15;11.30;;;15.70;61.50;;;;;;10454254;28;20053;-85
2022/03/28 09:30:10;;;;;;;29.08;16.00;;;15.90;61.00;;;;;;10433254;28;20034;-88
2022/03/28 09:35:12;;;;;;;18.15;10.90;;;16.00;61.20;;;;;;10411868;28;20108;-86
2022/03/28 09:40:23;;;;;;;24.63;12.85;;;16.30;60.80;;;;;;10411674;28;20018;-84
2022/03/28 09:45:30;;;;;;;18.80;10.23;;;16.40;61.00;;;;;;10393908;28;20125;-83
2022/03/28 09:50:39;;;;;;;24.73;12.20;;;16.60;60.80;;;;;;10412153;28;20033;-87
2022/03/28 09:55:51;;;;;;;21.67;11.20;;;16.90;59.90;;;;;;10393075;28;20488;-84
2022/03/28 10:00:52;;;;;;;20.33;9.98;;;17.10;59.10;;;;;;10411774;28;20036;-83
2022/03/28 10:05:53;;;;;;;16.73;9.18;;;17.20;58.90;;;;;;10410456;28;20025;-83
2022/03/28 10:10:54;;;;;;;20.75;10.20;;;17.30;58.60;;;;;;10410361;28;20034;-83
2022/03/28 10:15:56;;;;;;;19.80;10.45;;;17.40;58.70;;;;;;10410627;28;20764;-83
2022/03/28 10:21:03;;;;;;;19.38;9.85;;;17.50;58.10;;;;;;10410235;28;20044;-84
2022/03/28 10:26:09;;;;;;;17.25;9.60;;;17.60;57.50;;;;;;10410437;28;20054;-86
2022/03/28 10:31:18;;;;;;;23.20;11.35;;;17.60;56.50;;;;;;10409758;28;20033;-84
2022/03/28 10:36:29;;;;;;;18.67;9.13;;;17.80;57.10;;;;;;10409489;28;20033;-83
2022/03/28 10:41:30;;;;;;;18.25;9.15;;;18.00;55.60;;;;;;10409358;28;20064;-86
2022/03/28 10:46:35;;;;;;;17.05;9.52;;;18.10;54.20;;;;;;10409383;28;20032;-83
2022/03/28 10:51:47;;;;;;;15.27;8.50;;;18.10;54.10;;;;;;10391023;28;20044;-84
2022/03/28 10:56:49;;;;;;;16.95;9.63;;;18.20;54.40;;;;;;10409465;28;20334;-85
2022/03/28 11:01:53;;;;;;;16.60;8.52;;;18.30;54.40;;;;;;10408750;28;20018;-84
2022/03/28 11:07:06;;;;;;;13.90;8.98;;;18.40;53.40;;;;;;10390950;28;20071;-84
2022/03/28 11:12:19;;;;;;;14.07;8.15;;;18.50;54.20;;;;;;10390546;28;20048;-84
2022/03/28 11:17:24;;;;;;;13.00;7.65;;;18.60;52.70;;;;;;10390805;28;20029;-85
2022/03/28 11:23:06;;;;;;;15.70;7.60;;;18.70;53.20;;;;;;10394144;28;20029;-87
2022/03/28 11:28:14;;;;;;;12.98;8.05;;;18.80;53.30;;;;;;10399142;28;20053;-84
2022/03/28 11:33:21;;;;;;;13.35;6.97;;;18.90;53.20;;;;;;10416286;28;20041;-84
2022/03/28 11:38:26;;;;;;;13.40;7.70;;;18.90;52.10;;;;;;10416316;28;20034;-84
2022/03/28 11:43:33;;;;;;;12.57;7.00;;;19.00;52.60;;;;;;10416383;28;20037;-84
2022/03/28 11:48:34;;;;;;;14.38;7.30;;;19.00;52.70;;;;;;10416344;28;20527;-84
2022/03/28 11:53:35;;;;;;;11.50;6.22;;;19.20;53.40;;;;;;10415836;28;20091;-86
2022/03/28 11:58:35;;;;;;;11.80;6.93;;;19.40;52.40;;;;;;10416563;28;20021;-83
2022/03/28 12:03:46;;;;;;;9.18;6.07;;;19.60;52.00;;;;;;10415834;28;20025;-85
2022/03/28 12:08:50;;;;;;;11.65;5.53;;;19.70;52.20;;;;;;10415663;28;20021;-85
2022/03/28 12:13:52;;;;;;;17.15;7.22;;;19.60;51.20;;;;;;10397501;28;20803;-84
2022/03/28 12:18:53;;;;;;;10.02;5.97;;;19.70;51.70;;;;;;10414689;28;20114;-88
2022/03/28 12:23:54;;;;;;;9.45;5.57;;;19.80;50.90;;;;;;10414892;28;20057;-85
2022/03/28 12:28:55;;;;;;;13.52;6.47;;;19.80;52.20;;;;;;10415605;28;20029;-84
2022/03/28 12:33:55;;;;;;;9.93;6.00;;;19.90;51.70;;;;;;10413791;28;20037;-88
2022/03/28 12:39:07;;;;;;;13.02;7.80;;;19.90;50.90;;;;;;10414159;28;20108;-84
2022/03/28 12:44:16;;;;;;;15.68;8.40;;;19.90;51.50;;;;;;10452658;28;20116;-84
2022/03/28 12:49:20;;;;;;;14.55;7.82;;;19.80;51.10;;;;;;10434567;28;20047;-84
2022/03/28 12:54:22;;;;;;;14.50;7.97;;;19.90;51.50;;;;;;10443897;28;20032;-84
2022/03/28 12:59:33;;;;;;;12.02;7.00;;;19.80;51.50;;;;;;10454505;28;20031;-84
2022/03/28 13:04:44;;;;;;;15.40;7.50;;;19.90;51.70;;;;;;10454461;28;20029;-85
2022/03/28 13:09:55;;;;;;;18.67;8.05;;;19.80;51.90;;;;;;10453690;28;20037;-83
2022/03/28 13:14:55;;;;;;;15.77;8.13;;;20.00;52.30;;;;;;10453630;28;20024;-84
2022/03/28 13:19:58;;;;;;;13.27;6.35;;;20.10;52.60;;;;;;10453265;28;20041;-83
2022/03/28 13:25:17;;;;;;;14.27;6.05;;;20.30;51.90;;;;;;10446902;28;20049;-81
2022/03/28 13:30:19;;;;;;;13.10;7.32;;;20.30;51.50;;;;;;10449587;28;20033;-84
2022/03/28 13:35:19;;;;;;;11.68;5.82;;;20.40;51.70;;;;;;10453098;28;20402;-87
2022/03/28 13:40:20;;;;;;;8.15;4.88;;;20.40;51.20;;;;;;10453345;28;20032;-84
2022/03/28 13:45:21;;;;;;;21.27;9.45;;;20.30;52.30;;;;;;10451876;28;20465;-84
2022/03/28 13:50:22;;;;;;;8.90;5.28;;;20.40;51.10;;;;;;10452486;28;20469;-85
2022/03/28 13:55:23;;;;;;;13.20;7.72;;;20.30;51.20;;;;;;10454045;28;20040;-85
2022/03/28 14:00:25;;;;;;;15.23;5.88;;;20.10;51.80;;;;;;10452628;28;20083;-82
2022/03/28 14:05:26;;;;;;;10.70;5.85;;;20.30;51.30;;;;;;10451757;28;20028;-83
2022/03/28 14:10:27;;;;;;;13.82;6.82;;;20.30;50.00;;;;;;10452128;28;20029;-83
2022/03/28 14:15:28;;;;;;;8.98;5.07;;;20.10;50.40;;;;;;10451883;28;20028;-84
2022/03/28 14:20:29;;;;;;;10.85;6.60;;;20.00;51.10;;;;;;10451576;28;20082;-83
2022/03/28 14:25:30;;;;;;;11.07;6.03;;;19.80;50.70;;;;;;10451190;28;20045;-83
2022/03/28 14:30:30;;;;;;;13.40;5.70;;;19.70;51.00;;;;;;10451145;28;20052;-83
2022/03/28 14:35:31;;;;;;;7.32;4.78;;;19.60;51.00;;;;;;10450853;28;20163;-82
2022/03/28 14:40:32;;;;;;;22.70;11.23;;;19.50;51.00;;;;;;10432430;28;20025;-85
2022/03/28 14:46:59;;;;;;;17.67;9.20;;;19.40;52.00;;;;;;10450715;28;20424;-83
2022/03/28 14:50:54;;;;;;;15.38;8.55;;;19.40;51.20;;;;;;10449876;28;20047;-84
2022/03/28 14:55:56;;;;;;;20.60;10.02;;;19.30;51.40;;;;;;10450890;28;20048;-83
2022/03/28 15:00:57;;;;;;;17.52;7.93;;;19.20;51.70;;;;;;10450484;28;20469;-85
2022/03/28 15:05:57;;;;;;;11.95;7.75;;;19.10;52.10;;;;;;10449901;28;20419;-82
2022/03/28 15:10:58;;;;;;;9.43;5.18;;;19.10;51.80;;;;;;10450042;28;20086;-83
2022/03/28 15:15:58;;;;;;;23.85;12.27;;;19.00;52.50;;;;;;10449492;28;20111;-83
2022/03/28 15:20:59;;;;;;;15.63;8.80;;;18.80;52.50;;;;;;10447977;28;20040;-85
2022/03/28 15:26:05;;;;;;;11.98;5.38;;;18.70;53.00;;;;;;10448358;28;20065;-82
2022/03/28 15:31:19;;;;;;;12.05;6.10;;;18.60;53.70;;;;;;10431188;28;20072;-84
2022/03/28 15:36:20;;;;;;;16.10;7.30;;;18.50;53.90;;;;;;10448888;28;20722;-83
2022/03/28 15:41:21;;;;;;;11.32;5.93;;;18.40;54.20;;;;;;10449190;28;20049;-85
2022/03/28 15:46:22;;;;;;;21.65;11.23;;;18.30;54.60;;;;;;10448668;28;20064;-82
2022/03/28 15:51:24;;;;;;;10.70;6.00;;;18.20;54.70;;;;;;10448598;28;20037;-82
2022/03/28 15:56:25;;;;;;;11.88;5.95;;;18.20;55.30;;;;;;10448266;28;20064;-84
2022/03/28 16:01:39;;;;;;;22.85;9.23;;;18.00;55.60;;;;;;10449065;28;20481;-85
2022/03/28 16:06:45;;;;;;;12.73;8.20;;;17.90;55.60;;;;;;10448659;28;20025;-83
2022/03/28 16:11:46;;;;;;;;;;;17.90;56.20;;;;;;10456485;28;20048;-81
2022/03/28 16:16:49;;;;;;;16.58;9.95;;;17.70;56.30;;;;;;10455527;28;20292;-81
2022/03/28 16:21:53;;;;;;;14.18;8.10;;;17.50;56.60;;;;;;10455930;28;20511;-82
2022/03/28 16:26:53;;;;;;;33.80;15.18;;;17.40;57.10;;;;;;10455768;28;20049;-81
2022/03/28 16:31:54;;;;;;;20.75;9.70;;;17.20;57.40;;;;;;10455546;28;20473;-82
2022/03/28 16:36:54;;;;;;;25.23;12.75;;;17.10;57.80;;;;;;10455455;28;20029;-84
2022/03/28 16:41:55;;;;;;;23.90;10.82;;;16.90;58.30;;;;;;10454381;28;20488;-81
2022/03/28 16:46:56;;;;;;;42.95;19.98;;;16.80;58.20;;;;;;10454498;28;20025;-81
2022/03/28 16:51:57;;;;;;;66.90;28.65;;;16.60;58.70;;;;;;10454218;28;20848;-81
2022/03/28 16:56:57;;;;;;;65.18;28.40;;;16.40;59.20;;;;;;10455136;28;20029;-82
2022/03/28 17:01:59;;;;;;;59.60;25.63;;;16.20;59.30;;;;;;10454494;28;20492;-84
2022/03/28 17:07:01;;;;;;;59.10;23.85;;;16.00;59.70;;;;;;10454294;28;20036;-83
2022/03/28 17:12:02;;;;;;;74.22;30.73;;;15.80;60.10;;;;;;10454093;28;20358;-82
2022/03/28 17:17:03;;;;;;;84.38;33.05;;;15.60;60.10;;;;;;10453970;28;20033;-83
2022/03/28 17:22:04;;;;;;;74.38;29.45;;;15.40;60.60;;;;;;10452405;28;20048;-83
2022/03/28 17:27:04;;;;;;;72.88;32.85;;;15.30;61.10;;;;;;10453323;28;20396;-82
2022/03/28 17:32:06;;;;;;;70.82;29.70;;;15.00;61.70;;;;;;10452959;28;20041;-84
2022/03/28 17:37:07;;;;;;;102.65;49.80;;;14.70;62.20;;;;;;10434949;28;20041;-83
2022/03/28 17:42:08;;;;;;;95.57;39.92;;;14.60;63.10;;;;;;10434968;28;20036;-83
2022/03/28 17:47:08;;;;;;;72.22;34.05;;;14.40;63.30;;;;;;10445260;28;20056;-80
2022/03/28 17:52:09;;;;;;;98.93;48.42;;;14.30;63.90;;;;;;10451464;28;20037;-80
2022/03/28 17:57:10;;;;;;;99.88;52.58;;;14.10;64.20;;;;;;10451074;28;20021;-79
2022/03/28 18:02:10;;;;;;;125.85;71.13;;;13.90;65.50;;;;;;10438328;28;20068;-81
2022/03/28 18:07:11;;;;;;;96.00;50.50;;;13.60;65.60;;;;;;10451057;28;20024;-85
2022/03/28 18:12:12;;;;;;;131.18;72.40;;;13.20;66.40;;;;;;10450965;28;20036;-80
2022/03/28 18:17:12;;;;;;;90.57;48.17;;;13.10;67.40;;;;;;10448038;28;20060;-81
2022/03/28 18:22:13;;;;;;;51.92;25.10;;;13.00;68.00;;;;;;10432618;28;20043;-82
2022/03/28 18:27:14;;;;;;;157.45;82.93;;;12.90;68.20;;;;;;10434285;28;20045;-80
2022/03/28 18:32:17;;;;;;;57.55;28.58;;;13.10;68.90;;;;;;10437308;28;20040;-84
2022/03/28 18:37:17;;;;;;;226.50;122.35;;;13.40;69.10;;;;;;10449975;28;20079;-81
2022/03/28 18:42:18;;;;;;;223.38;128.32;;;13.30;68.60;;;;;;10447544;28;20128;-80
2022/03/28 18:47:19;;;;;;;141.88;84.75;;;13.30;69.00;;;;;;10449974;28;20040;-81
2022/03/28 18:52:22;;;;;;;44.75;23.60;;;13.20;69.10;;;;;;10416592;28;20040;-78
2022/03/28 18:57:23;;;;;;;55.65;27.42;;;13.10;69.40;;;;;;10442151;28;20029;-81
2022/03/28 19:02:24;;;;;;;127.70;53.10;;;13.10;69.90;;;;;;10448943;28;20408;-80
2022/03/28 19:07:25;;;;;;;157.35;64.50;;;13.00;69.60;;;;;;10448443;28;20494;-82
2022/03/28 19:12:26;;;;;;;199.48;84.20;;;13.10;69.60;;;;;;10448869;28;20029;-80
2022/03/28 19:17:27;;;;;;;229.50;104.80;;;12.90;69.50;;;;;;10448325;28;20104;-79
2022/03/28 19:22:27;;;;;;;83.30;40.25;;;12.90;69.60;;;;;;10447012;28;20029;-82
2022/03/28 19:27:29;;;;;;;77.43;36.50;;;12.60;70.00;;;;;;10448647;28;20072;-79
2022/03/28 19:32:29;;;;;;;88.13;48.60;;;12.30;70.40;;;;;;10440726;28;20485;-82
2022/03/28 19:37:31;;;;;;;100.95;50.47;;;12.10;71.20;;;;;;10425231;28;20109;-82
2022/03/28 19:42:32;;;;;;;83.22;43.13;;;11.80;71.60;;;;;;10431452;28;20026;-82
2022/03/28 19:47:33;;;;;;;69.07;36.60;;;11.90;72.10;;;;;;10453657;28;20021;-79
2022/03/28 19:52:34;;;;;;;66.97;34.88;;;11.80;72.10;;;;;;10449462;28;20115;-81
2022/03/28 19:57:34;;;;;;;71.90;35.47;;;11.70;72.40;;;;;;10442480;28;20514;-83
2022/03/28 20:02:35;;;;;;;63.17;31.90;;;11.70;72.60;;;;;;10449414;28;20065;-84
2022/03/28 20:07:36;;;;;;;71.60;34.03;;;11.60;72.60;;;;;;10456212;28;20025;-80
2022/03/28 20:12:37;;;;;;;66.88;32.05;;;11.60;73.10;;;;;;10455785;28;20079;-82
2022/03/28 20:17:37;;;;;;;92.85;44.03;;;11.40;73.50;;;;;;10452733;28;20535;-82
2022/03/28 20:22:38;;;;;;;84.07;41.95;;;11.20;74.10;;;;;;10444167;28;20041;-81
2022/03/28 20:27:39;;;;;;;84.33;38.83;;;11.00;74.80;;;;;;10449892;28;20053;-81
2022/03/28 20:32:39;;;;;;;90.73;43.13;;;10.80;75.30;;;;;;10417545;28;20056;-81
2022/03/28 20:37:40;;;;;;;104.90;49.53;;;10.60;76.10;;;;;;10453150;28;20388;-83
2022/03/28 20:42:41;;;;;;;91.97;43.60;;;10.40;76.70;;;;;;10423440;28;20029;-81
2022/03/28 20:47:41;;;;;;;74.77;35.30;;;10.20;77.50;;;;;;10453659;28;20044;-80
2022/03/28 20:52:42;;;;;;;61.30;27.40;;;10.10;78.10;;;;;;10443258;28;20044;-81
2022/03/28 20:57:43;;;;;;;52.20;25.70;;;10.00;77.70;;;;;;10453166;28;20101;-81
2022/03/28 21:02:44;;;;;;;62.23;29.10;;;10.00;78.20;;;;;;10453942;28;20029;-80
2022/03/28 21:07:47;;;;;;;61.73;29.43;;;9.90;78.90;;;;;;10417063;28;20128;-82
2022/03/28 21:12:50;;;;;;;68.93;32.27;;;9.80;79.50;;;;;;10413681;28;20049;-82
2022/03/28 21:17:51;;;;;;;67.10;33.97;;;9.80;79.70;;;;;;10414770;28;20541;-82
2022/03/28 21:22:56;;;;;;;79.50;37.90;;;9.70;80.40;;;;;;10413456;28;20034;-83
2022/03/28 21:27:56;;;;;;;93.10;42.70;;;9.50;80.80;;;;;;10443863;28;20500;-80
2022/03/28 21:32:59;;;;;;;95.23;46.07;;;9.50;81.20;;;;;;10452657;28;20064;-81
2022/03/28 21:38:00;;;;;;;104.97;48.03;;;9.40;81.80;;;;;;10452539;28;20435;-82
2022/03/28 21:43:01;;;;;;;97.73;44.90;;;9.30;82.20;;;;;;10452429;28;20040;-79
2022/03/28 21:48:01;;;;;;;94.67;45.13;;;9.30;82.70;;;;;;10451746;28;20052;-81
2022/03/28 21:53:03;;;;;;;89.77;42.47;;;9.30;82.80;;;;;;10452106;28;20029;-80
2022/03/28 21:58:03;;;;;;;84.07;38.80;;;9.30;83.50;;;;;;10451777;28;20037;-82
2022/03/28 22:03:04;;;;;;;80.57;38.70;;;9.20;83.90;;;;;;10450188;28;20040;-80
2022/03/28 22:08:05;;;;;;;71.43;37.07;;;9.10;84.20;;;;;;10451780;28;20032;-81
2022/03/28 22:13:06;;;;;;;69.07;33.73;;;9.00;84.50;;;;;;10450342;28;20039;-81
2022/03/28 22:18:07;;;;;;;59.33;29.60;;;9.00;84.90;;;;;;10433545;28;20021;-79
2022/03/28 22:23:07;;;;;;;59.10;29.37;;;8.90;85.10;;;;;;10451507;28;20029;-82
2022/03/28 22:28:08;;;;;;;59.70;31.00;;;8.90;85.80;;;;;;10450498;28;20057;-80
2022/03/28 22:33:08;;;;;;;68.20;32.70;;;8.80;86.30;;;;;;10450447;28;20056;-83
2022/03/28 22:38:09;;;;;;;78.70;34.87;;;8.80;86.90;;;;;;10450189;28;20110;-80
2022/03/28 22:43:10;;;;;;;62.20;32.77;;;8.80;87.20;;;;;;10450477;28;20025;-84
2022/03/28 22:48:11;;;;;;;78.43;37.47;;;9.00;87.50;;;;;;10449191;28;20029;-82
2022/03/28 22:53:14;;;;;;;64.57;31.20;;;9.10;86.90;;;;;;10450079;28;20374;-81
2022/03/28 22:58:15;;;;;;;56.07;28.27;;;9.20;86.80;;;;;;10450166;28;20037;-80
2022/03/28 23:03:16;;;;;;;55.40;28.47;;;9.40;86.80;;;;;;10448849;28;20052;-81
2022/03/28 23:08:16;;;;;;;59.37;29.57;;;9.50;86.20;;;;;;10449683;28;20655;-81
2022/03/28 23:13:17;;;;;;;59.27;28.27;;;9.70;85.70;;;;;;10449559;28;20139;-80
2022/03/28 23:18:18;;;;;;;54.87;26.53;;;9.90;85.60;;;;;;10449316;28;20374;-83
2022/03/28 23:23:18;;;;;;;52.17;26.40;;;10.00;84.60;;;;;;10448506;28;20037;-82
2022/03/28 23:28:21;;;;;;;59.40;31.53;;;10.10;84.40;;;;;;10448057;28;20563;-82
2022/03/28 23:33:21;;;;;;;63.07;34.07;;;10.20;84.40;;;;;;10449069;28;20048;-83
2022/03/28 23:38:22;;;;;;;54.13;27.47;;;10.20;84.10;;;;;;10448042;28;20539;-84
2022/03/28 23:43:23;;;;;;;57.03;27.00;;;10.30;83.60;;;;;;10449393;28;20040;-81
2022/03/28 23:48:23;;;;;;;46.77;24.67;;;10.30;84.00;;;;;;10448201;28;20469;-80
2022/03/28 23:53:24;;;;;;;46.47;24.23;;;10.30;83.30;;;;;;10448786;28;20431;-80
2022/03/28 23:58:25;;;;;;;45.00;23.43;;;10.20;83.30;;;;;;10447972;28;20040;-81
